Terminal Aerodrome Forecast
Issued by NWS Green Bay, WI

Home | Current Version | Previous Version | Graphics & Text | Print | Product List | Glossary On
Versions: 1 2 3 4 5 6 7 8 9 10 11 12 13 14 15 16 17 18 19 20 21 22 23 24 25 26 27 28 29 30 31 32 33 34 35 36 37 38 39
000
FTUS43 KGRB 261000 AAB
TAFGRB
TAF AMD
KGRB 261012Z 2610/2706 00000KT 6SM BR BKN015
     FM261200 00000KT P6SM FEW020 BKN050
     FM261600 07003KT 6SM HZ SCT015 BKN035=

USA.gov is the U.S. government's official web portal to all federal, state and local government web resources and services.